Center Point, AL (35220)

11:56 AM CST on December 27, 2014 (GMT -0600)
APRSWXNET Hoover AL US | Change Station
CLOSE
Current Station
Personal Weather Station
Location: Vestavia Hills, AL
Elevation: 1056 ft
Nearby Weather Stations
Active Advisory: Flash Flood Watch

Elev 1056 ft 33.43 °N, 86.84 °W | Updated 35 minutes ago

Overcast
Overcast
50 °F
Feels Like 49 °F
N
4
Wind Variable Wind from North
Gusts 0.0 mph

Today
High -- | Low -- °F
--% Chance of Precip.
Yesterday
High -- | Low -- °F
Precip. -- in
6:50 AM 4:47 PM
Waxing Crescent, 38% visible
Pressure 30.23 in
Visibility 10.0 miles
Clouds Mostly Cloudy 4500 ft
Mostly Cloudy 7500 ft
Mostly Cloudy 25000 ft
Windchill 49 °F
Dew Point 46 °F
Humidity 85%
Rainfall -999.00 in
Snow Depth Not available.
UV 2 out of 12
Pollen .40 out of 12
Air Quality Not available.
Flu Activity Not available.
METAR KBHM 271753Z 18007KT 10SM BKN045 BKN075 BKN250 13/07 A3023 RMK AO2 SLP235 60015 T01280072 10133 20083 58037

More Conditions Fewer Conditions

Pressure 30.23 in
Visibility 10.0 miles
Clouds Mostly Cloudy 4500 ft
Mostly Cloudy 7500 ft
Mostly Cloudy 25000 ft
Windchill 49 °F
Dew Point 46 °F
Humidity 85%
Rainfall -999.00 in
Snow Depth Not available.
UV 2 out of 12
Pollen .40 out of 12
Air Quality Not available.
Flu Activity Not available.
METAR KBHM 271753Z 18007KT 10SM BKN045 BKN075 BKN250 13/07 A3023 RMK AO2 SLP235 60015 T01280072 10133 20083 58037

More Conditions Fewer Conditions

10-Day Weather Forecast

Almanac

Astronomy

Dec. 27, 2014 Rise Set
Actual Time
Civil Twilight
Nautical Twilight
Astronomical Twilight
Moon
Length of Visible Light
Length of Day
Tomorrow will be .
, % of the Moon is Illuminated

Today's Extremes

State Highs State Lows

Community

WunderPhotos

Upload Photos

1,780,974 photos uploaded!

WunderBlogs® & News

Nearby

Air Quality

  Air Quality AQ Index Pollutant
Not available.

Snow Depth

Station Depth Elevation

Earthquake Activity

City Distance Mag. Time & Date
Minimum magnitude displayed is 2.5.

Coastal Water Temperatures

Place Temperature

Nearby Weather Stations